Aérodrome :
LOGIN :

S'inscrire | Disclaimer

   EN    FR    IT 

 










Légende :    VFR   VFR Marginal   IFR   IFR Intensif   IFR Très Intensif
Visi : 
Plafond : 
>= 8 km
>= 3000ft
5 à 8 km
1000 à 3000 ft
1500m à 5 km
500 à 1000 ft
800 à 1500m
200 à 500 ft
< 800m
< 200 ft
Symboles :   Orages  Brouillard  Fortes neiges  Fortes précipitations  Vent > 20 kt
SIGMETs :   Divers  Orages  Givrage  Turbulence  Onde Orograph.  Cendres Volcan.






- Altitude de l'aérodrome : 598 ft
- Code IATA : BQH


EGKB - Biggin Hill

DERNIER METAR :
  • 281650Z 25010G20KT 220V290 9999 FEW030 04/00 Q0998

METARs EXPIRÉS :
  • 281620Z 26011KT 230V290 9999 SCT030 04/00 Q0998
  • 281550Z 26010KT 230V290 9999 SCT035 05/M00 Q0997
  • 281520Z 24013G23KT 210V280 9999 SCT030 05/M00 Q0997
  • 281450Z 25013KT 220V280 9999 VCSH SCT035 06/M00 Q0997
  • 281420Z 25013G23KT 230V290 9999 SCT029 06/00 Q0997

TAF TAF EGKB
Valide du 28 à 15h jusqu'au 28 à 23h UTC


281402Z 2815/2823 26014KT 9999 FEW020
PROB40
TEMPO 2815/2818 26017G27KT
PROB30
TEMPO 2815/2817 8000 -SHRA
PROB30
TEMPO 2818/2823 26015G25KT



MET'MAP, la Météo Aéronautique d'un coup d'oeil ! - Copyright ORBIFLY Décembre 2007 - Disclaimer

ORBIFLY MET'MAP TEAM :

Programmation & Développement : Alexandra Zaïnal
Sur une idée originale de : Baudouin d'Aumeries
Assistance à la programmation : Marc-Olivier Méhu
Soutien technique & logistique : Manuel Goepfert

Contact : metmap@orbifly.com




SOURCES & CREDITS :

   NOAA